Time;durP1;ratioP1;P1;durP2;ratioP2;P2;SDS_P1;SDS_P2;PMS_P1;PMS_P2;Temp;Humidity;BMP_temperature;BMP_pressure;BME280_temperature;BME280_humidity;BME280_pressure;Samples;Min_cycle;Max_cycle;Signal;HPM_P1;HPM_P2
2023/07/05 00:00:44;;;;;;;14.13;11.80;;;;;;;-145.94;61.32;75656.53;5116608;28;20292;-65
2023/07/05 00:03:11;;;;;;;14.13;11.20;;;;;;;-145.94;60.33;75650.41;5116305;28;20205;-65
2023/07/05 00:05:38;;;;;;;10.70;9.90;;;;;;;-145.94;60.34;75656.53;5116581;28;20187;-65
2023/07/05 00:08:05;;;;;;;9.87;9.03;;;;;;;-145.94;60.01;75648.38;5116237;28;20238;-65
2023/07/05 00:10:32;;;;;;;9.80;8.90;;;;;;;-145.94;59.43;75630.03;5116147;28;20205;-66
2023/07/05 00:13:01;;;;;;;8.97;8.57;;;;;;;-145.94;59.60;75619.84;5116433;28;20231;-65
2023/07/05 00:15:30;;;;;;;12.67;8.83;;;;;;;-145.94;60.12;75611.69;5116429;28;20242;-65
2023/07/05 00:17:58;;;;;;;9.63;8.80;;;;;;;-145.94;59.68;75605.56;5116060;28;20240;-65
2023/07/05 00:20:24;;;;;;;8.60;7.70;;;;;;;-145.94;60.59;75609.66;5115954;28;20245;-65
2023/07/05 00:22:52;;;;;;;8.73;8.03;;;;;;;-145.94;60.25;75603.53;5115907;28;20573;-65
2023/07/05 00:25:18;;;;;;;7.20;6.67;;;;;;;-145.94;60.50;75593.34;5116633;28;20194;-65
2023/07/05 00:27:45;;;;;;;7.80;7.37;;;;;;;-145.94;60.65;75589.25;5115993;28;20181;-65
2023/07/05 00:30:12;;;;;;;7.43;6.93;;;;;;;-145.94;60.59;75583.16;5097636;28;20266;-66
2023/07/05 00:32:38;;;;;;;6.90;6.70;;;;;;;-145.94;61.09;75581.09;5097348;28;20199;-65
2023/07/05 00:35:05;;;;;;;6.43;6.13;;;;;;;-145.94;61.13;75572.94;5116311;28;20225;-65
2023/07/05 00:37:31;;;;;;;8.27;6.60;;;;;;;-145.94;61.40;75570.91;5097389;28;20201;-66
2023/07/05 00:39:58;;;;;;;6.90;6.60;;;;;;;-145.94;61.64;75566.84;5097408;28;20197;-65
2023/07/05 00:42:24;;;;;;;7.57;7.07;;;;;;;-145.94;62.58;75572.94;5097185;28;20217;-65
2023/07/05 00:45:09;;;;;;;5.77;5.67;;;;;;;-145.94;62.98;75575.00;5115833;28;20512;-65
2023/07/05 00:47:39;;;;;;;9.43;5.90;;;;;;;-145.94;63.39;75575.00;5116042;28;20169;-66
2023/07/05 00:50:24;;;;;;;5.60;5.27;;;;;;;-145.94;64.49;75585.19;5097301;28;20599;-67
2023/07/05 00:52:54;;;;;;;5.80;5.60;;;;;;;-145.94;65.85;75583.16;5115878;28;20215;-66
2023/07/05 00:55:22;;;;;;;5.63;5.37;;;;;;;-145.94;66.57;75597.41;5115535;28;20648;-67
2023/07/05 00:57:51;;;;;;;5.93;5.73;;;;;;;-145.94;66.67;75595.38;5097304;28;20185;-67
2023/07/05 01:00:21;;;;;;;5.97;5.77;;;;;;;-145.94;66.85;75595.38;5115403;28;20206;-68
2023/07/05 01:02:52;;;;;;;6.63;6.07;;;;;;;-145.94;67.25;75597.41;5115102;28;20201;-68
2023/07/05 01:05:19;;;;;;;5.53;5.13;;;;;;;-145.94;68.17;75603.53;5115179;28;20640;-67
2023/07/05 01:07:47;;;;;;;5.40;5.30;;;;;;;-145.94;68.05;75603.53;5096777;28;20208;-67
2023/07/05 01:10:19;;;;;;;5.60;5.50;;;;;;;-145.94;67.75;75595.38;5115246;28;20585;-68
2023/07/05 01:13:15;;;;;;;5.90;5.60;;;;;;;-145.94;68.60;75587.22;5114952;28;20182;-66
2023/07/05 01:16:12;;;;;;;7.77;7.43;;;;;;;-145.94;68.70;75589.25;5096663;28;20242;-67
2023/07/05 01:18:47;;;;;;;6.20;5.73;;;;;;;-145.94;69.15;75585.19;5096353;28;20245;-67
2023/07/05 01:21:26;;;;;;;5.20;4.93;;;;;;;-145.94;68.94;75577.03;5096542;28;20216;-67
2023/07/05 01:24:26;;;;;;;5.20;5.07;;;;;;;-145.94;69.35;75577.03;5096454;28;20659;-67
2023/07/05 01:27:23;;;;;;;5.73;5.13;;;;;;;-145.94;70.50;75589.25;5115305;28;20215;-66
2023/07/05 01:30:27;;;;;;;5.30;4.93;;;;;;;-145.94;70.74;75581.09;5096463;28;20671;-67
2023/07/05 01:33:02;;;;;;;6.13;5.90;;;;;;;-145.94;70.95;75572.94;5114892;28;20181;-67
2023/07/05 01:35:34;;;;;;;6.47;6.30;;;;;;;-145.94;71.11;75575.00;5115133;28;20631;-67
2023/07/05 01:38:05;;;;;;;8.73;8.03;;;;;;;-145.94;71.42;75572.94;5096517;28;20189;-67
2023/07/05 01:40:31;;;;;;;8.27;6.87;;;;;;;-145.94;71.70;75570.91;5114674;28;20266;-66
2023/07/05 01:43:01;;;;;;;5.37;5.17;;;;;;;-145.94;71.50;75566.84;5114325;28;20201;-66
2023/07/05 01:45:34;;;;;;;5.73;5.53;;;;;;;-145.94;72.02;75560.72;5095557;28;20196;-66
2023/07/05 01:48:09;;;;;;;6.57;6.47;;;;;;;-145.94;72.04;75550.53;5114679;28;20585;-67
2023/07/05 01:50:47;;;;;;;6.03;5.93;;;;;;;-145.94;72.05;75548.50;5114455;28;20262;-67
2023/07/05 01:53:18;;;;;;;8.03;7.67;;;;;;;-145.94;71.96;75540.34;5114656;28;20269;-67
2023/07/05 01:55:55;;;;;;;5.93;5.83;;;;;;;-145.94;72.18;75526.06;5114192;28;20177;-67
2023/07/05 01:58:28;;;;;;;5.90;5.40;;;;;;;-145.94;72.47;75522.00;5096237;28;20189;-66
2023/07/05 02:00:57;;;;;;;5.60;5.30;;;;;;;-145.94;72.53;75517.91;5095867;28;20224;-66
2023/07/05 02:03:25;;;;;;;5.00;4.60;;;;;;;-145.94;72.48;75511.78;5114625;28;20205;-66
2023/07/05 02:05:53;;;;;;;5.43;5.20;;;;;;;-145.94;72.36;75509.75;5113984;28;20189;-65
2023/07/05 02:08:25;;;;;;;5.70;5.10;;;;;;;-145.94;72.51;75501.59;5095735;28;20216;-66
2023/07/05 02:10:52;;;;;;;4.90;4.67;;;;;;;-145.94;72.19;75495.50;5095721;28;20224;-67
2023/07/05 02:13:18;;;;;;;4.40;4.30;;;;;;;-145.94;71.90;75485.28;5113931;28;20234;-66
2023/07/05 02:15:48;;;;;;;4.67;3.70;;;;;;;-145.94;72.35;75489.38;5113931;28;20268;-66
2023/07/05 02:18:15;;;;;;;3.43;2.97;;;;;;;-145.94;72.09;75489.38;5113881;28;20193;-66
2023/07/05 02:20:41;;;;;;;3.17;3.07;;;;;;;-145.94;71.54;75475.09;5095544;28;20584;-65
2023/07/05 02:23:08;;;;;;;3.60;3.57;;;;;;;-145.94;71.54;75475.09;5095300;28;20206;-65
2023/07/05 02:25:35;;;;;;;4.07;3.97;;;;;;;-145.94;71.38;75464.91;5095556;28;20189;-66
2023/07/05 02:28:09;;;;;;;3.50;3.43;;;;;;;-145.94;71.44;75460.84;5113695;28;20185;-65
2023/07/05 02:30:37;;;;;;;4.23;3.00;;;;;;;-145.94;71.42;75466.94;5095363;28;20698;-65
2023/07/05 02:33:04;;;;;;;3.17;3.17;;;;;;;-145.94;71.17;75450.63;5095391;28;20234;-65
2023/07/05 02:35:39;;;;;;;3.43;3.33;;;;;;;-145.94;71.46;75454.72;5113663;28;20185;-65
2023/07/05 02:38:06;;;;;;;3.07;2.87;;;;;;;-145.94;71.11;75460.84;5114258;28;20218;-65
2023/07/05 02:40:33;;;;;;;3.10;3.10;;;;;;;-145.94;71.05;75466.94;5113586;28;20603;-66
2023/07/05 02:43:00;;;;;;;3.40;3.10;;;;;;;-145.94;70.94;75460.84;5113489;28;20227;-66
2023/07/05 02:45:27;;;;;;;3.53;3.27;;;;;;;-145.94;70.77;75464.91;5095381;28;20246;-65
2023/07/05 02:47:54;;;;;;;3.30;3.20;;;;;;;-145.94;70.55;75454.72;5095298;28;20655;-67
2023/07/05 02:50:22;;;;;;;3.60;2.83;;;;;;;-145.94;70.36;75454.72;5095787;28;20185;-68
2023/07/05 02:52:49;;;;;;;3.20;3.20;;;;;;;-145.94;70.41;75448.59;5095386;28;20231;-66
2023/07/05 02:55:15;;;;;;;2.23;2.23;;;;;;;-145.94;70.78;75452.69;5114038;28;20638;-67
2023/07/05 02:57:41;;;;;;;7.10;2.50;;;;;;;-145.94;70.23;75458.78;5115398;28;20189;-67
2023/07/05 03:00:10;;;;;;;2.23;2.23;;;;;;;-145.94;70.38;75452.69;5117512;28;20177;-68
2023/07/05 03:02:36;;;;;;;3.00;3.00;;;;;;;-145.94;70.81;75458.78;5117475;28;20185;-67
2023/07/05 03:05:10;;;;;;;4.43;2.43;;;;;;;-145.94;71.01;75462.88;5099172;28;20193;-67
2023/07/05 03:07:37;;;;;;;2.20;2.20;;;;;;;-145.94;70.95;75452.69;5099203;28;20177;-67
2023/07/05 03:10:05;;;;;;;3.00;2.80;;;;;;;-145.94;70.70;75450.63;5117947;28;20623;-67
2023/07/05 03:12:31;;;;;;;3.13;2.43;;;;;;;-145.94;71.10;75458.78;5117340;28;20553;-67
2023/07/05 03:14:58;;;;;;;2.70;2.63;;;;;;;-145.94;70.93;75460.84;5098993;28;20234;-67
2023/07/05 03:17:25;;;;;;;2.67;2.67;;;;;;;-145.94;70.76;75456.75;5117239;28;20181;-66
2023/07/05 03:19:54;;;;;;;3.00;3.00;;;;;;;-145.94;71.20;75460.84;5117172;28;20648;-67
2023/07/05 03:22:20;;;;;;;2.67;2.67;;;;;;;-145.94;71.32;75456.75;5117085;28;20201;-67
2023/07/05 03:24:50;;;;;;;3.23;3.13;;;;;;;-145.94;70.81;75450.63;5117606;28;20263;-67
2023/07/05 03:27:16;;;;;;;2.00;2.00;;;;;;;-145.94;70.95;75462.88;5098771;28;20242;-66
2023/07/05 03:29:42;;;;;;;3.20;2.90;;;;;;;-145.94;71.06;75456.75;5117070;28;20196;-66
2023/07/05 03:32:09;;;;;;;2.40;2.30;;;;;;;-145.94;69.78;75464.91;5098576;28;20304;-66
2023/07/05 03:34:36;;;;;;;2.63;2.63;;;;;;;-145.94;68.02;75458.78;5116934;28;20181;-67
2023/07/05 03:37:03;;;;;;;1.90;1.90;;;;;;;-145.94;68.23;75466.94;5098630;28;20201;-66
2023/07/05 03:39:30;;;;;;;2.50;2.47;;;;;;;-145.94;67.92;75454.72;5116832;28;20235;-67
2023/07/05 03:41:57;;;;;;;2.43;2.33;;;;;;;-145.94;66.72;75468.97;5117022;28;20197;-66
2023/07/05 03:44:24;;;;;;;2.80;2.70;;;;;;;-145.94;65.19;75477.13;5116688;28;20632;-66
2023/07/05 03:46:51;;;;;;;2.63;2.53;;;;;;;-145.94;64.65;75481.22;5117016;28;20509;-65
2023/07/05 03:49:17;;;;;;;2.50;2.30;;;;;;;-145.94;63.32;75497.53;5116674;28;20212;-66
2023/07/05 03:51:44;;;;;;;5.03;2.07;;;;;;;-145.94;63.88;75503.63;5116599;28;20216;-65
2023/07/05 03:54:10;;;;;;;2.53;2.33;;;;;;;-145.94;61.52;75522.00;5116562;28;20189;-66
2023/07/05 03:56:37;;;;;;;7.67;2.60;;;;;;;-145.94;59.92;75560.72;5116509;28;20554;-67
2023/07/05 03:59:03;;;;;;;3.93;2.00;;;;;;;-145.94;59.44;75595.38;5116761;28;20651;-66
2023/07/05 04:01:31;;;;;;;2.10;2.10;;;;;;;-145.94;57.83;75630.03;5116351;28;20213;-66
2023/07/05 04:04:01;;;;;;;2.53;2.43;;;;;;;-145.94;58.01;75678.97;5116534;28;20263;-66
2023/07/05 04:06:31;;;;;;;5.10;2.60;;;;;;;-145.94;57.83;75711.56;5116868;28;20512;-66
2023/07/05 04:08:58;;;;;;;4.93;2.63;;;;;;;-145.94;58.65;75736.03;5115669;28;20264;-66
2023/07/05 04:11:25;;;;;;;3.57;3.37;;;;;;;-145.94;58.91;75746.22;5116134;28;20228;-67
2023/07/05 04:13:53;;;;;;;5.27;3.13;;;;;;;-145.94;59.20;75768.66;5116791;28;20203;-66
2023/07/05 04:16:21;;;;;;;8.70;3.13;;;;;;;-145.94;59.40;75784.97;5116108;28;20193;-66
2023/07/05 04:18:53;;;;;;;3.83;3.63;;;;;;;-145.94;59.51;75787.00;5116023;28;20189;-65
2023/07/05 04:21:20;;;;;;;3.43;3.33;;;;;;;-145.94;57.90;75799.22;5115927;28;20217;-66
2023/07/05 04:23:46;;;;;;;4.40;3.23;;;;;;;-145.94;58.25;75797.19;5116064;28;20673;-66
2023/07/05 04:26:19;;;;;;;3.07;2.67;;;;;;;-145.94;58.15;75817.59;5116046;28;20589;-66
2023/07/05 04:28:46;;;;;;;2.93;2.83;;;;;;;-145.94;57.98;75809.44;5115855;28;20178;-66
2023/07/05 04:31:17;;;;;;;3.40;3.10;;;;;;;-145.94;58.01;75813.50;5115938;28;20217;-66
2023/07/05 04:33:44;;;;;;;3.47;3.37;;;;;;;-145.94;58.63;75825.75;5116058;28;20161;-66
2023/07/05 04:36:11;;;;;;;4.47;4.17;;;;;;;-145.94;58.89;75829.81;5115728;28;20238;-65
2023/07/05 04:38:54;;;;;;;4.80;3.40;;;;;;;-145.94;59.20;75835.94;5115973;28;20205;-65
2023/07/05 04:41:21;;;;;;;2.43;2.43;;;;;;;-145.94;59.76;75829.81;5116122;28;20209;-65
2023/07/05 04:43:47;;;;;;;3.87;3.60;;;;;;;-145.94;59.44;75840.00;5115592;28;20197;-66
2023/07/05 04:46:14;;;;;;;8.17;3.00;;;;;;;-145.94;57.97;75837.97;5115524;28;20643;-66
2023/07/05 04:48:41;;;;;;;3.27;2.93;;;;;;;-145.94;58.04;75831.84;5115514;28;20534;-65
2023/07/05 04:51:07;;;;;;;15.63;3.63;;;;;;;-145.94;57.91;75852.25;5115496;28;20256;-66
2023/07/05 04:53:34;;;;;;;6.13;3.57;;;;;;;-145.94;58.06;75850.19;5115612;28;20612;-65
2023/07/05 04:56:01;;;;;;;5.70;3.27;;;;;;;-145.94;58.75;75856.31;5115278;28;20656;-65
2023/07/05 04:58:27;;;;;;;3.67;3.50;;;;;;;-145.94;59.22;75848.16;5115613;28;20600;-65
2023/07/05 05:01:02;;;;;;;3.80;3.00;;;;;;;-145.94;59.17;75856.31;5097142;28;20768;-65
2023/07/05 05:03:29;;;;;;;3.70;3.27;;;;;;;-145.94;59.34;75850.19;5115301;28;20185;-65
2023/07/05 05:05:56;;;;;;;2.80;2.70;;;;;;;-145.94;58.27;75850.19;5115137;28;20581;-67
2023/07/05 05:08:24;;;;;;;2.87;2.67;;;;;;;-145.94;58.69;75852.25;5115336;28;20197;-65
2023/07/05 05:10:56;;;;;;;3.50;3.40;;;;;;;-145.94;58.25;75848.16;5114973;28;20213;-65
2023/07/05 05:13:24;;;;;;;2.73;2.73;;;;;;;-145.94;58.13;75837.97;5115024;28;20558;-65
2023/07/05 05:15:51;;;;;;;2.33;2.33;;;;;;;-145.94;58.32;75840.00;5114946;28;20651;-65
2023/07/05 05:18:18;;;;;;;3.27;3.07;;;;;;;-145.94;57.69;75854.28;5114880;28;20257;-65
2023/07/05 05:20:45;;;;;;;3.77;3.67;;;;;;;-145.94;57.64;75856.31;5113816;28;20291;-65
2023/07/05 05:23:11;;;;;;;3.67;3.57;;;;;;;-145.94;57.74;75842.03;5114719;28;20549;-65
2023/07/05 05:25:40;;;;;;;3.73;3.50;;;;;;;-145.94;57.30;75833.88;5115284;28;20193;-66
2023/07/05 05:28:07;;;;;;;3.07;3.03;;;;;;;-145.94;57.27;75837.97;5114734;28;20201;-65
2023/07/05 05:30:34;;;;;;;3.20;3.10;;;;;;;-145.94;57.89;75840.00;5114646;28;20251;-65
2023/07/05 05:33:03;;;;;;;3.53;3.40;;;;;;;-145.94;57.22;75854.28;5114773;28;20193;-66
2023/07/05 05:35:31;;;;;;;5.93;3.63;;;;;;;-145.94;56.67;75835.94;5114514;28;20224;-66
2023/07/05 05:37:58;;;;;;;3.40;3.30;;;;;;;-145.94;56.69;75831.84;5114535;28;20243;-65
2023/07/05 05:40:24;;;;;;;4.00;3.90;;;;;;;-145.94;57.20;75835.94;5114411;28;20238;-66
2023/07/05 05:42:50;;;;;;;3.83;3.50;;;;;;;-145.94;57.12;75835.94;5114760;28;20185;-65
2023/07/05 05:45:17;;;;;;;3.87;3.77;;;;;;;-145.94;56.82;75837.97;5114565;28;20209;-65
2023/07/05 05:47:44;;;;;;;3.83;3.63;;;;;;;-145.94;56.93;75835.94;5114242;28;20192;-65
2023/07/05 05:50:10;;;;;;;3.13;3.13;;;;;;;-145.94;56.44;75829.81;5114211;28;20177;-66
2023/07/05 05:52:37;;;;;;;3.93;3.57;;;;;;;-145.94;56.63;75835.94;5114500;28;20189;-65
2023/07/05 05:55:03;;;;;;;3.60;3.30;;;;;;;-145.94;55.63;75833.88;5114535;28;20207;-65
2023/07/05 05:57:30;;;;;;;4.73;3.43;;;;;;;-145.94;55.58;75829.81;5114509;28;20185;-66
2023/07/05 05:59:56;;;;;;;3.20;3.00;;;;;;;-145.94;54.78;75825.75;5114397;28;20193;-65
2023/07/05 06:02:22;;;;;;;2.87;2.77;;;;;;;-145.94;54.99;75823.69;5114609;28;20702;-65
2023/07/05 06:04:49;;;;;;;4.53;3.70;;;;;;;-145.94;55.18;75819.63;5114265;28;20678;-65
2023/07/05 06:07:16;;;;;;;3.00;2.90;;;;;;;-145.94;55.05;75827.78;5114329;28;20214;-65
2023/07/05 06:09:48;;;;;;;3.13;3.03;;;;;;;-145.94;54.43;75842.03;5114009;28;20219;-65
2023/07/05 06:12:15;;;;;;;3.00;3.00;;;;;;;-145.94;54.41;75846.13;5113905;28;20250;-66
2023/07/05 06:14:41;;;;;;;3.50;3.30;;;;;;;-145.94;54.89;75850.19;5114222;28;20178;-65
2023/07/05 06:17:09;;;;;;;3.63;3.53;;;;;;;-145.94;54.86;75848.16;5114174;28;20189;-66
2023/07/05 06:19:35;;;;;;;3.43;3.43;;;;;;;-145.94;55.64;75862.44;5114126;28;20525;-65
2023/07/05 06:22:02;;;;;;;4.93;2.53;;;;;;;-145.94;54.95;75854.28;5113753;28;20209;-66
2023/07/05 06:24:28;;;;;;;3.80;3.60;;;;;;;-145.94;54.56;75848.16;5113735;28;20254;-65
2023/07/05 06:26:55;;;;;;;3.40;3.40;;;;;;;-145.94;54.67;75862.44;5114027;28;20197;-65
2023/07/05 06:29:21;;;;;;;3.63;3.53;;;;;;;-145.94;54.55;75835.94;5113664;28;20192;-66
2023/07/05 06:31:48;;;;;;;4.97;3.13;;;;;;;-145.94;54.09;75835.94;5113703;28;20239;-65
2023/07/05 06:34:16;;;;;;;3.83;3.53;;;;;;;-145.94;54.50;75833.88;5113677;28;20545;-65
2023/07/05 06:36:42;;;;;;;2.83;2.83;;;;;;;-145.94;53.92;75829.81;5113909;28;20226;-66
2023/07/05 06:39:09;;;;;;;3.77;3.20;;;;;;;-145.94;53.83;75837.97;5113944;28;20189;-65
2023/07/05 06:41:35;;;;;;;3.33;3.23;;;;;;;-145.94;54.10;75852.25;5113846;28;20257;-65
2023/07/05 06:44:02;;;;;;;7.03;3.50;;;;;;;-145.94;54.54;75866.50;5114039;28;20667;-65
2023/07/05 06:46:28;;;;;;;12.23;3.30;;;;;;;-145.94;54.36;75886.91;5114132;28;20189;-66
2023/07/05 06:48:54;;;;;;;3.83;3.53;;;;;;;-145.94;54.52;75884.84;5113501;28;20231;-65
2023/07/05 06:51:21;;;;;;;2.87;2.87;;;;;;;-145.94;55.24;75888.94;5113485;28;20262;-65
2023/07/05 06:53:48;;;;;;;2.83;2.83;;;;;;;-145.94;55.87;75895.06;5113801;28;20177;-65
2023/07/05 06:56:16;;;;;;;4.47;3.23;;;;;;;-145.94;55.07;75895.06;5113760;28;20203;-65
2023/07/05 06:58:43;;;;;;;3.00;2.90;;;;;;;-145.94;55.21;75903.22;5113433;28;20269;-65
2023/07/05 07:01:10;;;;;;;6.37;2.90;;;;;;;-145.94;54.10;75893.00;5113347;28;20205;-66
2023/07/05 07:03:39;;;;;;;5.43;3.13;;;;;;;-145.94;54.21;75901.16;5113589;28;20178;-65
2023/07/05 07:06:05;;;;;;;4.13;3.33;;;;;;;-145.94;54.15;75890.97;5113419;28;20227;-66
2023/07/05 07:08:34;;;;;;;3.87;3.77;;;;;;;-145.94;54.50;75903.22;5113447;28;20585;-65
2023/07/05 07:11:02;;;;;;;6.63;4.30;;;;;;;-145.94;54.34;75882.81;5113298;28;20258;-65
2023/07/05 07:13:30;;;;;;;4.50;2.77;;;;;;;-145.94;54.09;75880.78;5113342;28;20191;-65
2023/07/05 07:16:04;;;;;;;2.77;2.67;;;;;;;-145.94;53.26;75886.91;5113357;28;20177;-65
2023/07/05 07:18:31;;;;;;;11.17;2.80;;;;;;;-145.94;53.30;75897.09;5113588;28;20585;-65
2023/07/05 07:21:01;;;;;;;3.90;2.30;;;;;;;-145.94;53.54;75893.00;5113220;28;20216;-65
2023/07/05 07:23:29;;;;;;;2.37;2.33;;;;;;;-145.94;53.39;75893.00;5113710;28;20181;-65
2023/07/05 07:26:07;;;;;;;2.50;2.30;;;;;;;-145.94;52.99;75884.84;5113160;28;20659;-65
2023/07/05 07:28:34;;;;;;;3.90;2.70;;;;;;;-145.94;52.50;75899.13;5113777;28;20185;-65
2023/07/05 07:31:15;;;;;;;3.20;3.00;;;;;;;-145.94;53.37;75901.16;5113186;28;20209;-65
2023/07/05 07:33:44;;;;;;;2.97;2.63;;;;;;;-145.94;53.85;75911.38;5113713;28;20177;-65
2023/07/05 07:36:17;;;;;;;8.67;2.70;;;;;;;-145.94;54.81;75915.44;5113159;28;20234;-65
2023/07/05 07:38:44;;;;;;;2.57;2.37;;;;;;;-145.94;54.95;75937.88;5113461;28;20174;-65
2023/07/05 07:41:32;;;;;;;5.60;2.43;;;;;;;-145.94;55.15;75946.03;5113056;28;20214;-66
2023/07/05 07:44:06;;;;;;;2.83;2.83;;;;;;;-145.94;55.63;75962.34;5115560;28;20240;-65
2023/07/05 07:46:33;;;;;;;2.60;2.50;;;;;;;-145.94;56.24;75972.53;5116702;28;20226;-64
2023/07/05 07:49:01;;;;;;;2.27;2.17;;;;;;;-145.94;55.68;75970.47;5116636;28;20283;-65
2023/07/05 07:51:30;;;;;;;2.87;2.77;;;;;;;-145.94;55.36;75972.53;5116530;28;20213;-65
2023/07/05 07:53:59;;;;;;;2.30;2.20;;;;;;;-145.94;55.42;75974.56;5116865;28;20165;-65
2023/07/05 07:56:26;;;;;;;4.13;2.37;;;;;;;-145.94;55.12;75984.75;5117164;28;20190;-65
2023/07/05 07:58:55;;;;;;;5.00;2.00;;;;;;;-145.94;54.74;75974.56;5116449;28;20246;-65
2023/07/05 08:01:32;;;;;;;1.97;1.83;;;;;;;-145.94;54.52;75986.78;5116371;28;20201;-65
2023/07/05 08:04:01;;;;;;;2.47;2.47;;;;;;;-145.94;55.16;75974.56;5116923;28;20177;-65
2023/07/05 08:06:50;;;;;;;2.07;2.07;;;;;;;-145.94;55.10;75966.41;5116285;28;20200;-65
2023/07/05 08:09:21;;;;;;;2.40;2.30;;;;;;;-145.94;54.67;75968.44;5116539;28;20646;-65
2023/07/05 08:11:48;;;;;;;2.27;2.03;;;;;;;-145.94;54.21;75974.56;5116145;28;20220;-65
2023/07/05 08:14:17;;;;;;;3.90;2.63;;;;;;;-145.94;53.81;75964.38;5098074;28;20189;-65
2023/07/05 08:16:44;;;;;;;2.63;2.53;;;;;;;-145.94;54.12;75968.44;5116145;28;20182;-65
2023/07/05 08:19:11;;;;;;;4.70;1.90;;;;;;;-145.94;53.89;75966.41;5116070;28;20246;-65
2023/07/05 08:21:37;;;;;;;3.07;2.77;;;;;;;-145.94;53.51;75962.34;5115960;28;20254;-65
2023/07/05 08:24:05;;;;;;;8.50;2.47;;;;;;;-145.94;53.86;75950.09;5115916;28;20189;-66
2023/07/05 08:26:51;;;;;;;2.53;2.43;;;;;;;-145.94;53.17;75958.25;5116247;28;20188;-65
2023/07/05 08:29:18;;;;;;;1.90;1.90;;;;;;;-145.94;53.27;75960.28;5115810;28;20200;-66
2023/07/05 08:31:48;;;;;;;5.63;2.70;;;;;;;-145.94;53.82;75956.22;5116096;28;20551;-66
2023/07/05 08:34:15;;;;;;;1.93;1.70;;;;;;;-145.94;52.84;75964.38;5116151;28;20555;-66
2023/07/05 08:36:42;;;;;;;3.80;2.03;;;;;;;-145.94;53.31;75974.56;5115721;28;20213;-65
2023/07/05 08:39:11;;;;;;;2.10;2.00;;;;;;;-145.94;53.76;75974.56;5116271;28;20253;-64
2023/07/05 08:41:44;;;;;;;9.07;2.43;;;;;;;-145.94;52.56;75984.75;5115553;28;20200;-65
2023/07/05 08:44:57;;;;;;;2.60;2.47;;;;;;;-145.94;53.17;75988.84;5115661;28;20204;-65
2023/07/05 08:47:36;;;;;;;2.53;2.43;;;;;;;-145.94;52.94;75984.75;5013364;28;20193;-65
2023/07/05 08:50:18;;;;;;;3.80;2.30;;;;;;;-145.94;52.72;75984.75;5112752;28;20205;-65
2023/07/05 08:53:11;;;;;;;2.80;2.70;;;;;;;-145.94;53.08;75992.91;5115512;28;20238;-66
2023/07/05 08:55:48;;;;;;;4.37;2.30;;;;;;;-145.94;53.86;75992.91;5115653;28;20178;-65
2023/07/05 08:58:21;;;;;;;1.87;1.77;;;;;;;-145.94;53.79;75999.03;5115743;28;20223;-65
2023/07/05 09:00:57;;;;;;;2.70;2.20;;;;;;;-145.94;53.81;76001.06;5115735;28;20679;-66
2023/07/05 09:03:28;;;;;;;2.70;2.20;;;;;;;-145.94;54.22;76011.25;5115201;28;20185;-66
2023/07/05 09:06:22;;;;;;;3.53;2.30;;;;;;;-145.94;53.27;76015.34;5115418;28;20197;-65
2023/07/05 09:09:04;;;;;;;3.10;2.30;;;;;;;-145.94;53.17;76017.38;5115409;28;20624;-65
2023/07/05 09:12:03;;;;;;;12.10;2.40;;;;;;;-145.94;53.31;76015.34;5115044;28;20205;-65
2023/07/05 09:15:05;;;;;;;2.77;2.77;;;;;;;-145.94;53.90;76001.06;5102603;28;20197;-65
2023/07/05 09:17:42;;;;;;;2.70;2.30;;;;;;;-145.94;52.97;75994.94;5115271;28;20181;-65
2023/07/05 09:20:29;;;;;;;4.47;1.90;;;;;;;-145.94;52.43;75990.88;5115665;28;20530;-66
2023/07/05 09:22:58;;;;;;;2.50;2.30;;;;;;;-145.94;51.64;75972.53;5115137;28;20177;-66
2023/07/05 09:25:30;;;;;;;8.37;2.47;;;;;;;-145.94;52.25;75950.09;5114728;28;20200;-65
2023/07/05 09:28:33;;;;;;;5.00;2.53;;;;;;;-145.94;51.54;75931.75;5115230;28;20187;-65
2023/07/05 09:31:01;;;;;;;7.80;2.97;;;;;;;-145.94;51.22;75917.47;5114603;28;20213;-65
2023/07/05 09:33:33;;;;;;;2.10;2.10;;;;;;;-145.94;51.90;75905.25;5114665;28;20193;-65
2023/07/05 09:36:08;;;;;;;4.20;2.73;;;;;;;-145.94;51.25;75886.91;5114949;28;20180;-65
2023/07/05 09:38:41;;;;;;;2.20;2.20;;;;;;;-145.94;51.49;75864.47;5114869;28;20238;-65
2023/07/05 09:41:20;;;;;;;2.63;2.53;;;;;;;-145.94;49.66;75850.19;5114780;28;20258;-66
2023/07/05 09:43:47;;;;;;;4.13;2.83;;;;;;;-145.94;49.75;75852.25;5114754;28;20626;-65
2023/07/05 09:46:30;;;;;;;3.47;3.07;;;;;;;-145.94;49.55;75842.03;5114332;28;20224;-65
2023/07/05 09:48:56;;;;;;;4.63;3.13;;;;;;;-145.94;49.70;75831.84;5114615;28;20608;-65
2023/07/05 09:51:23;;;;;;;8.70;2.50;;;;;;;-145.94;49.52;75833.88;5114516;28;20216;-65
2023/07/05 09:54:00;;;;;;;2.77;2.57;;;;;;;-145.94;48.24;75825.75;5114215;28;20189;-65
2023/07/05 09:56:27;;;;;;;4.43;2.40;;;;;;;-145.94;48.52;75848.16;5114782;28;20173;-65
2023/07/05 09:59:12;;;;;;;3.73;2.90;;;;;;;-145.94;48.48;75856.31;5114441;28;20189;-65
2023/07/05 10:01:47;;;;;;;5.33;3.03;;;;;;;-145.94;48.78;75852.25;5114105;28;20262;-65
2023/07/05 10:04:13;;;;;;;14.37;3.17;;;;;;;-145.94;48.46;75864.47;5114052;28;20181;-65
2023/07/05 10:06:44;;;;;;;4.00;2.77;;;;;;;-145.94;48.73;75858.34;5113750;28;20185;-65
2023/07/05 10:09:16;;;;;;;2.97;2.67;;;;;;;-145.94;47.89;75856.31;5114026;28;20165;-66
2023/07/05 10:11:48;;;;;;;4.70;3.07;;;;;;;-145.94;47.53;75848.16;5114273;28;20602;-66
2023/07/05 10:14:18;;;;;;;6.80;3.00;;;;;;;-145.94;48.00;75848.16;5114521;28;20174;-66
2023/07/05 10:16:55;;;;;;;12.03;3.30;;;;;;;-145.94;47.42;75850.19;5113883;28;20189;-66
2023/07/05 10:19:26;;;;;;;4.87;3.20;;;;;;;-145.94;47.34;75831.84;5114138;28;20185;-66
2023/07/05 10:22:13;;;;;;;19.83;2.67;;;;;;;-145.94;47.01;75821.66;5113773;28;20682;-66
2023/07/05 10:24:48;;;;;;;3.07;2.87;;;;;;;-145.94;47.33;75821.66;5114332;28;20250;-66
2023/07/05 10:27:21;;;;;;;15.60;4.27;;;;;;;-145.94;46.64;75801.28;5113750;28;20196;-66
2023/07/05 10:29:51;;;;;;;3.20;2.70;;;;;;;-145.94;46.68;75807.38;5113593;28;20197;-65
2023/07/05 10:32:19;;;;;;;7.50;3.07;;;;;;;-145.94;47.30;75803.31;5114195;28;20208;-65
2023/07/05 10:34:50;;;;;;;5.50;3.10;;;;;;;-145.94;46.93;75797.19;5114185;28;20612;-66
2023/07/05 10:37:31;;;;;;;8.07;2.37;;;;;;;-145.94;45.52;75803.31;5113602;28;20185;-65
2023/07/05 10:40:03;;;;;;;10.53;2.90;;;;;;;-145.94;45.91;75815.53;5113957;28;20169;-66
2023/07/05 10:42:32;;;;;;;4.37;2.63;;;;;;;-145.94;45.17;75823.69;5114081;28;20540;-65
2023/07/05 10:45:00;;;;;;;4.07;3.13;;;;;;;-145.94;45.82;75842.03;5114074;28;20205;-65
2023/07/05 10:47:30;;;;;;;3.27;3.07;;;;;;;-145.94;45.83;75835.94;5113648;28;20238;-67
2023/07/05 10:50:04;;;;;;;7.03;2.90;;;;;;;-145.94;45.71;75837.97;5114112;28;20570;-66
2023/07/05 10:52:37;;;;;;;5.70;3.90;;;;;;;-145.94;45.45;75825.75;5113558;28;20687;-67
2023/07/05 10:55:15;;;;;;;8.03;2.70;;;;;;;-145.94;44.91;75821.66;5114064;28;20231;-66
2023/07/05 10:57:45;;;;;;;6.27;3.07;;;;;;;-145.94;45.26;75815.53;5113479;28;20181;-66
2023/07/05 11:00:38;;;;;;;16.40;2.90;;;;;;;-145.94;44.49;75819.63;5113348;28;20231;-66
2023/07/05 11:03:33;;;;;;;6.27;2.50;;;;;;;-145.94;44.60;75815.53;5102912;28;20205;-66
2023/07/05 11:06:02;;;;;;;5.93;2.70;;;;;;;-145.94;44.21;75768.66;5113202;28;20216;-65
2023/07/05 11:08:31;;;;;;;10.93;3.70;;;;;;;-145.94;43.22;75754.38;5113967;28;20170;-65
2023/07/05 11:11:02;;;;;;;6.73;2.77;;;;;;;-145.94;43.20;75768.66;5113531;28;20237;-66
2023/07/05 11:13:30;;;;;;;5.93;2.93;;;;;;;-145.94;43.22;75772.72;5113358;28;20178;-66
2023/07/05 11:15:57;;;;;;;2.87;2.63;;;;;;;-145.94;43.42;75766.63;5113911;28;20174;-66
2023/07/05 11:18:27;;;;;;;7.03;3.03;;;;;;;-145.94;42.72;75768.66;5114731;28;20199;-67
2023/07/05 11:20:58;;;;;;;8.97;2.33;;;;;;;-145.94;42.43;75766.63;5117467;28;20576;-66
2023/07/05 11:23:43;;;;;;;7.97;2.20;;;;;;;-145.94;42.30;75762.53;5117202;28;20196;-65
2023/07/05 11:26:29;;;;;;;3.80;2.57;;;;;;;-145.94;42.03;75774.78;5117011;28;20193;-66
2023/07/05 11:28:56;;;;;;;9.77;3.00;;;;;;;-145.94;41.94;75768.66;5117253;28;20185;-66
2023/07/05 11:31:28;;;;;;;6.40;2.27;;;;;;;-145.94;42.48;75744.19;5117029;28;20209;-66
2023/07/05 11:34:20;;;;;;;6.60;2.50;;;;;;;-145.94;42.52;75709.53;5117321;28;20260;-66